sensor_id;sensor_type;location;lat;lon;timestamp;temperature;humidity
35425;DHT22;21537;48.226;16.400;2022-09-21T00:00:39;10.20;99.90
35425;DHT22;21537;48.226;16.400;2022-09-21T00:03:05;10.30;99.90
35425;DHT22;21537;48.226;16.400;2022-09-21T00:05:32;10.30;99.90
35425;DHT22;21537;48.226;16.400;2022-09-21T00:08:03;10.30;99.90
35425;DHT22;21537;48.226;16.400;2022-09-21T00:10:29;10.30;99.90
35425;DHT22;21537;48.226;16.400;2022-09-21T00:12:56;10.40;99.90
35425;DHT22;21537;48.226;16.400;2022-09-21T00:15:22;10.40;99.90
35425;DHT22;21537;48.226;16.400;2022-09-21T00:17:52;10.40;99.90
35425;DHT22;21537;48.226;16.400;2022-09-21T00:20:19;10.40;99.90
35425;DHT22;21537;48.226;16.400;2022-09-21T00:22:46;10.50;99.90
35425;DHT22;21537;48.226;16.400;2022-09-21T00:25:12;10.50;99.90
35425;DHT22;21537;48.226;16.400;2022-09-21T00:27:38;10.50;99.90
35425;DHT22;21537;48.226;16.400;2022-09-21T00:30:05;10.40;99.90
35425;DHT22;21537;48.226;16.400;2022-09-21T00:32:33;10.50;99.90
35425;DHT22;21537;48.226;16.400;2022-09-21T00:34:59;10.40;99.90
35425;DHT22;21537;48.226;16.400;2022-09-21T00:37:26;10.50;99.90
35425;DHT22;21537;48.226;16.400;2022-09-21T00:39:52;10.50;99.90
35425;DHT22;21537;48.226;16.400;2022-09-21T00:42:19;10.50;99.90
35425;DHT22;21537;48.226;16.400;2022-09-21T00:44:45;10.50;99.90
35425;DHT22;21537;48.226;16.400;2022-09-21T00:47:13;10.50;99.90
35425;DHT22;21537;48.226;16.400;2022-09-21T00:49:41;10.50;99.90
35425;DHT22;21537;48.226;16.400;2022-09-21T00:52:09;10.50;99.90
35425;DHT22;21537;48.226;16.400;2022-09-21T00:54:44;10.50;99.90
35425;DHT22;21537;48.226;16.400;2022-09-21T00:57:11;10.50;99.90
35425;DHT22;21537;48.226;16.400;2022-09-21T00:59:39;10.50;99.90
35425;DHT22;21537;48.226;16.400;2022-09-21T01:02:05;10.50;99.90
35425;DHT22;21537;48.226;16.400;2022-09-21T01:04:31;10.50;99.90
35425;DHT22;21537;48.226;16.400;2022-09-21T01:07:00;10.50;99.90
35425;DHT22;21537;48.226;16.400;2022-09-21T01:09:27;10.40;99.90
35425;DHT22;21537;48.226;16.400;2022-09-21T01:18:11;10.40;99.90
35425;DHT22;21537;48.226;16.400;2022-09-21T01:26:58;10.30;99.90
35425;DHT22;21537;48.226;16.400;2022-09-21T01:29:25;10.30;99.90
35425;DHT22;21537;48.226;16.400;2022-09-21T01:34:28;10.30;99.90
35425;DHT22;21537;48.226;16.400;2022-09-21T01:36:57;10.30;99.90
35425;DHT22;21537;48.226;16.400;2022-09-21T01:39:24;10.30;99.90
35425;DHT22;21537;48.226;16.400;2022-09-21T01:41:51;10.40;99.90
35425;DHT22;21537;48.226;16.400;2022-09-21T01:44:22;10.40;99.90
35425;DHT22;21537;48.226;16.400;2022-09-21T01:46:49;10.40;99.90
35425;DHT22;21537;48.226;16.400;2022-09-21T01:49:23;10.40;99.90
35425;DHT22;21537;48.226;16.400;2022-09-21T01:51:58;10.40;99.90
35425;DHT22;21537;48.226;16.400;2022-09-21T01:54:39;10.40;99.90
35425;DHT22;21537;48.226;16.400;2022-09-21T01:57:18;10.40;99.90
35425;DHT22;21537;48.226;16.400;2022-09-21T01:59:55;10.40;99.90
35425;DHT22;21537;48.226;16.400;2022-09-21T02:05:12;10.30;99.90
35425;DHT22;21537;48.226;16.400;2022-09-21T02:07:40;10.40;99.90
35425;DHT22;21537;48.226;16.400;2022-09-21T02:10:09;10.40;99.90
35425;DHT22;21537;48.226;16.400;2022-09-21T02:12:38;10.40;99.90
35425;DHT22;21537;48.226;16.400;2022-09-21T02:15:05;10.40;99.90
35425;DHT22;21537;48.226;16.400;2022-09-21T02:17:51;10.40;99.90
35425;DHT22;21537;48.226;16.400;2022-09-21T02:20:24;10.40;99.90
35425;DHT22;21537;48.226;16.400;2022-09-21T02:23:18;10.40;99.90
35425;DHT22;21537;48.226;16.400;2022-09-21T02:26:06;10.40;99.90
35425;DHT22;21537;48.226;16.400;2022-09-21T02:34:11;10.40;99.90
35425;DHT22;21537;48.226;16.400;2022-09-21T02:36:48;10.40;99.90
35425;DHT22;21537;48.226;16.400;2022-09-21T02:39:21;10.40;99.90
35425;DHT22;21537;48.226;16.400;2022-09-21T02:42:02;10.40;99.90
35425;DHT22;21537;48.226;16.400;2022-09-21T02:44:39;10.40;99.90
35425;DHT22;21537;48.226;16.400;2022-09-21T02:47:27;10.40;99.90
35425;DHT22;21537;48.226;16.400;2022-09-21T02:50:02;10.40;99.90
35425;DHT22;21537;48.226;16.400;2022-09-21T02:52:30;10.40;99.90
35425;DHT22;21537;48.226;16.400;2022-09-21T02:54:57;10.30;99.90
35425;DHT22;21537;48.226;16.400;2022-09-21T02:57:24;10.30;99.90
35425;DHT22;21537;48.226;16.400;2022-09-21T02:59:51;10.30;99.90
35425;DHT22;21537;48.226;16.400;2022-09-21T03:02:17;10.30;99.90
35425;DHT22;21537;48.226;16.400;2022-09-21T03:04:45;10.30;99.90
35425;DHT22;21537;48.226;16.400;2022-09-21T03:07:15;10.30;99.90
35425;DHT22;21537;48.226;16.400;2022-09-21T03:09:41;10.30;99.90
35425;DHT22;21537;48.226;16.400;2022-09-21T03:12:07;10.30;99.90
35425;DHT22;21537;48.226;16.400;2022-09-21T03:14:33;10.30;99.90
35425;DHT22;21537;48.226;16.400;2022-09-21T03:16:59;10.30;99.90
35425;DHT22;21537;48.226;16.400;2022-09-21T03:19:25;10.20;99.90
35425;DHT22;21537;48.226;16.400;2022-09-21T03:21:51;10.20;99.90
35425;DHT22;21537;48.226;16.400;2022-09-21T03:24:18;10.20;99.90
35425;DHT22;21537;48.226;16.400;2022-09-21T03:27:04;10.20;99.90
35425;DHT22;21537;48.226;16.400;2022-09-21T03:29:29;10.10;99.90
35425;DHT22;21537;48.226;16.400;2022-09-21T03:31:55;10.10;99.90
35425;DHT22;21537;48.226;16.400;2022-09-21T03:34:21;10.10;99.90
35425;DHT22;21537;48.226;16.400;2022-09-21T03:36:47;10.10;99.90
35425;DHT22;21537;48.226;16.400;2022-09-21T03:39:13;10.10;99.90
35425;DHT22;21537;48.226;16.400;2022-09-21T03:41:39;10.10;99.90
35425;DHT22;21537;48.226;16.400;2022-09-21T03:44:04;10.10;99.90
35425;DHT22;21537;48.226;16.400;2022-09-21T03:46:30;10.10;99.90
35425;DHT22;21537;48.226;16.400;2022-09-21T03:49:00;10.00;99.90
35425;DHT22;21537;48.226;16.400;2022-09-21T03:51:28;10.00;99.90
35425;DHT22;21537;48.226;16.400;2022-09-21T03:53:56;10.00;99.90
35425;DHT22;21537;48.226;16.400;2022-09-21T03:56:22;10.00;99.90
35425;DHT22;21537;48.226;16.400;2022-09-21T03:58:48;9.90;99.90
35425;DHT22;21537;48.226;16.400;2022-09-21T04:01:14;9.80;99.90
35425;DHT22;21537;48.226;16.400;2022-09-21T04:03:40;9.80;99.90
35425;DHT22;21537;48.226;16.400;2022-09-21T04:06:10;9.80;99.90
35425;DHT22;21537;48.226;16.400;2022-09-21T04:08:37;9.80;99.90
35425;DHT22;21537;48.226;16.400;2022-09-21T04:11:17;9.70;99.90
35425;DHT22;21537;48.226;16.400;2022-09-21T04:13:43;9.70;99.90
35425;DHT22;21537;48.226;16.400;2022-09-21T04:16:13;9.80;99.90
35425;DHT22;21537;48.226;16.400;2022-09-21T04:18:39;9.70;99.90
35425;DHT22;21537;48.226;16.400;2022-09-21T04:21:05;9.60;99.90
35425;DHT22;21537;48.226;16.400;2022-09-21T04:23:31;9.60;99.90
35425;DHT22;21537;48.226;16.400;2022-09-21T04:25:57;9.60;99.90
35425;DHT22;21537;48.226;16.400;2022-09-21T04:28:23;9.60;99.90
35425;DHT22;21537;48.226;16.400;2022-09-21T04:30:53;9.50;99.90
35425;DHT22;21537;48.226;16.400;2022-09-21T04:33:19;9.50;99.90
35425;DHT22;21537;48.226;16.400;2022-09-21T04:35:45;9.50;99.90
35425;DHT22;21537;48.226;16.400;2022-09-21T04:38:10;9.40;99.90
35425;DHT22;21537;48.226;16.400;2022-09-21T04:40:38;9.40;99.90
35425;DHT22;21537;48.226;16.400;2022-09-21T04:43:04;9.40;99.90
35425;DHT22;21537;48.226;16.400;2022-09-21T04:45:29;9.30;99.90
35425;DHT22;21537;48.226;16.400;2022-09-21T04:47:56;9.30;99.90
35425;DHT22;21537;48.226;16.400;2022-09-21T04:50:22;9.20;99.90
35425;DHT22;21537;48.226;16.400;2022-09-21T04:53:01;9.20;99.90
35425;DHT22;21537;48.226;16.400;2022-09-21T04:55:27;9.20;99.90
35425;DHT22;21537;48.226;16.400;2022-09-21T04:57:53;9.20;99.90
35425;DHT22;21537;48.226;16.400;2022-09-21T05:00:19;9.20;99.90
35425;DHT22;21537;48.226;16.400;2022-09-21T05:02:44;9.20;99.90
35425;DHT22;21537;48.226;16.400;2022-09-21T05:05:10;9.20;99.90
35425;DHT22;21537;48.226;16.400;2022-09-21T05:07:36;9.30;99.90
35425;DHT22;21537;48.226;16.400;2022-09-21T05:10:01;9.30;99.90
35425;DHT22;21537;48.226;16.400;2022-09-21T05:12:27;9.30;99.90
35425;DHT22;21537;48.226;16.400;2022-09-21T05:14:53;9.30;99.90
35425;DHT22;21537;48.226;16.400;2022-09-21T05:17:20;9.40;99.90
35425;DHT22;21537;48.226;16.400;2022-09-21T05:19:48;9.50;99.90
35425;DHT22;21537;48.226;16.400;2022-09-21T05:22:14;9.50;99.90
35425;DHT22;21537;48.226;16.400;2022-09-21T05:24:40;9.60;99.90
35425;DHT22;21537;48.226;16.400;2022-09-21T05:27:06;9.60;99.90
35425;DHT22;21537;48.226;16.400;2022-09-21T05:29:32;9.70;99.90
35425;DHT22;21537;48.226;16.400;2022-09-21T05:32:02;9.80;99.90
35425;DHT22;21537;48.226;16.400;2022-09-21T05:39:50;10.00;99.90
35425;DHT22;21537;48.226;16.400;2022-09-21T05:42:16;10.10;99.90
35425;DHT22;21537;48.226;16.400;2022-09-21T05:44:42;10.30;99.90
35425;DHT22;21537;48.226;16.400;2022-09-21T05:55:58;10.70;99.90
35425;DHT22;21537;48.226;16.400;2022-09-21T05:58:42;10.80;99.90
35425;DHT22;21537;48.226;16.400;2022-09-21T06:01:26;11.00;99.90
35425;DHT22;21537;48.226;16.400;2022-09-21T06:03:56;11.20;99.90
35425;DHT22;21537;48.226;16.400;2022-09-21T06:06:22;11.40;99.90
35425;DHT22;21537;48.226;16.400;2022-09-21T06:08:53;11.50;99.90
35425;DHT22;21537;48.226;16.400;2022-09-21T06:11:19;11.60;99.90
35425;DHT22;21537;48.226;16.400;2022-09-21T06:13:44;11.70;99.90
35425;DHT22;21537;48.226;16.400;2022-09-21T06:16:10;12.00;99.90
35425;DHT22;21537;48.226;16.400;2022-09-21T06:18:40;12.20;99.90
35425;DHT22;21537;48.226;16.400;2022-09-21T06:21:07;12.40;99.90
35425;DHT22;21537;48.226;16.400;2022-09-21T06:23:33;12.40;99.90
35425;DHT22;21537;48.226;16.400;2022-09-21T06:25:59;12.50;99.90
35425;DHT22;21537;48.226;16.400;2022-09-21T06:28:25;12.60;99.90
35425;DHT22;21537;48.226;16.400;2022-09-21T06:30:53;12.70;99.90
35425;DHT22;21537;48.226;16.400;2022-09-21T06:33:20;12.70;99.90
35425;DHT22;21537;48.226;16.400;2022-09-21T06:35:56;12.70;99.90
35425;DHT22;21537;48.226;16.400;2022-09-21T06:38:23;12.80;99.90
35425;DHT22;21537;48.226;16.400;2022-09-21T06:40:50;12.70;99.90
35425;DHT22;21537;48.226;16.400;2022-09-21T06:43:16;12.50;99.90
35425;DHT22;21537;48.226;16.400;2022-09-21T06:45:42;12.40;99.90
35425;DHT22;21537;48.226;16.400;2022-09-21T06:48:08;12.30;99.90
35425;DHT22;21537;48.226;16.400;2022-09-21T06:50:35;12.20;99.90
35425;DHT22;21537;48.226;16.400;2022-09-21T06:53:02;12.10;99.90
35425;DHT22;21537;48.226;16.400;2022-09-21T06:55:28;12.10;99.90
35425;DHT22;21537;48.226;16.400;2022-09-21T06:58:03;12.00;99.90
35425;DHT22;21537;48.226;16.400;2022-09-21T07:00:30;12.00;99.90
35425;DHT22;21537;48.226;16.400;2022-09-21T07:02:56;12.10;99.90
35425;DHT22;21537;48.226;16.400;2022-09-21T07:05:22;12.10;99.90
35425;DHT22;21537;48.226;16.400;2022-09-21T07:07:48;12.10;99.90
35425;DHT22;21537;48.226;16.400;2022-09-21T07:10:14;12.20;99.90
35425;DHT22;21537;48.226;16.400;2022-09-21T07:12:40;12.10;99.90
35425;DHT22;21537;48.226;16.400;2022-09-21T07:15:07;12.10;99.90
35425;DHT22;21537;48.226;16.400;2022-09-21T07:17:36;12.20;99.90
35425;DHT22;21537;48.226;16.400;2022-09-21T07:20:03;12.30;99.90
35425;DHT22;21537;48.226;16.400;2022-09-21T07:22:32;12.50;99.90
35425;DHT22;21537;48.226;16.400;2022-09-21T07:24:58;12.70;99.90
35425;DHT22;21537;48.226;16.400;2022-09-21T07:27:26;12.80;99.90
35425;DHT22;21537;48.226;16.400;2022-09-21T07:29:52;12.80;99.90
35425;DHT22;21537;48.226;16.400;2022-09-21T07:32:18;12.80;99.90
35425;DHT22;21537;48.226;16.400;2022-09-21T07:34:44;12.80;99.90
35425;DHT22;21537;48.226;16.400;2022-09-21T07:37:10;12.80;99.90
35425;DHT22;21537;48.226;16.400;2022-09-21T07:39:36;12.70;99.90
35425;DHT22;21537;48.226;16.400;2022-09-21T07:42:04;12.90;99.90
35425;DHT22;21537;48.226;16.400;2022-09-21T07:44:30;13.20;99.90
35425;DHT22;21537;48.226;16.400;2022-09-21T07:46:56;13.40;99.90
35425;DHT22;21537;48.226;16.400;2022-09-21T07:49:22;13.50;99.90
35425;DHT22;21537;48.226;16.400;2022-09-21T07:51:47;13.70;99.90
35425;DHT22;21537;48.226;16.400;2022-09-21T07:54:13;13.80;99.90
35425;DHT22;21537;48.226;16.400;2022-09-21T07:56:42;13.80;99.90
35425;DHT22;21537;48.226;16.400;2022-09-21T07:59:27;13.90;99.90
35425;DHT22;21537;48.226;16.400;2022-09-21T08:01:57;13.90;99.90
35425;DHT22;21537;48.226;16.400;2022-09-21T08:04:22;13.90;99.90
35425;DHT22;21537;48.226;16.400;2022-09-21T08:06:48;14.00;99.90
35425;DHT22;21537;48.226;16.400;2022-09-21T08:09:14;14.20;99.90
35425;DHT22;21537;48.226;16.400;2022-09-21T08:11:41;14.40;99.90
35425;DHT22;21537;48.226;16.400;2022-09-21T08:14:09;14.90;99.90
35425;DHT22;21537;48.226;16.400;2022-09-21T08:16:36;15.10;99.90
35425;DHT22;21537;48.226;16.400;2022-09-21T08:19:03;15.20;99.90
35425;DHT22;21537;48.226;16.400;2022-09-21T08:21:29;15.40;99.90
35425;DHT22;21537;48.226;16.400;2022-09-21T08:23:55;15.70;99.90
35425;DHT22;21537;48.226;16.400;2022-09-21T08:26:22;16.00;99.90
35425;DHT22;21537;48.226;16.400;2022-09-21T08:28:51;16.20;99.90
35425;DHT22;21537;48.226;16.400;2022-09-21T08:31:19;16.00;99.90
35425;DHT22;21537;48.226;16.400;2022-09-21T08:33:46;16.00;99.90
35425;DHT22;21537;48.226;16.400;2022-09-21T08:36:12;15.90;99.90
35425;DHT22;21537;48.226;16.400;2022-09-21T08:38:38;15.60;99.90
35425;DHT22;21537;48.226;16.400;2022-09-21T08:44:08;15.10;99.90
35425;DHT22;21537;48.226;16.400;2022-09-21T08:46:36;15.10;99.90
35425;DHT22;21537;48.226;16.400;2022-09-21T08:49:12;15.10;99.90
35425;DHT22;21537;48.226;16.400;2022-09-21T08:51:50;15.00;99.90
35425;DHT22;21537;48.226;16.400;2022-09-21T08:54:43;15.20;99.90
35425;DHT22;21537;48.226;16.400;2022-09-21T08:57:14;15.90;99.90
35425;DHT22;21537;48.226;16.400;2022-09-21T08:59:44;16.90;99.90
35425;DHT22;21537;48.226;16.400;2022-09-21T09:08:34;16.50;99.90
35425;DHT22;21537;48.226;16.400;2022-09-21T09:21:54;16.40;99.90
35425;DHT22;21537;48.226;16.400;2022-09-21T09:25:12;16.40;99.90
35425;DHT22;21537;48.226;16.400;2022-09-21T09:27:39;16.20;99.90
35425;DHT22;21537;48.226;16.400;2022-09-21T09:30:21;16.20;99.90
35425;DHT22;21537;48.226;16.400;2022-09-21T09:33:15;16.30;99.90
35425;DHT22;21537;48.226;16.400;2022-09-21T09:36:02;16.20;99.90
35425;DHT22;21537;48.226;16.400;2022-09-21T09:38:47;16.20;99.90
35425;DHT22;21537;48.226;16.400;2022-09-21T09:41:29;16.10;99.90
35425;DHT22;21537;48.226;16.400;2022-09-21T09:51:59;16.70;99.90
35425;DHT22;21537;48.226;16.400;2022-09-21T09:54:26;17.00;99.90
35425;DHT22;21537;48.226;16.400;2022-09-21T09:56:52;18.00;99.90
35425;DHT22;21537;48.226;16.400;2022-09-21T09:59:33;18.60;99.90
35425;DHT22;21537;48.226;16.400;2022-09-21T10:02:09;18.90;99.90
35425;DHT22;21537;48.226;16.400;2022-09-21T10:05:03;18.90;99.90
35425;DHT22;21537;48.226;16.400;2022-09-21T10:07:41;20.40;98.00
35425;DHT22;21537;48.226;16.400;2022-09-21T10:13:22;24.50;90.80
35425;DHT22;21537;48.226;16.400;2022-09-21T10:15:53;25.30;87.60
35425;DHT22;21537;48.226;16.400;2022-09-21T10:18:22;24.60;86.00
35425;DHT22;21537;48.226;16.400;2022-09-21T10:21:00;23.60;87.60
35425;DHT22;21537;48.226;16.400;2022-09-21T10:23:28;21.90;89.50
35425;DHT22;21537;48.226;16.400;2022-09-21T10:26:08;20.40;92.20
35425;DHT22;21537;48.226;16.400;2022-09-21T10:28:35;19.60;92.90
35425;DHT22;21537;48.226;16.400;2022-09-21T10:33:46;18.80;94.40
35425;DHT22;21537;48.226;16.400;2022-09-21T10:36:33;18.30;94.30
35425;DHT22;21537;48.226;16.400;2022-09-21T10:44:40;18.40;94.10
35425;DHT22;21537;48.226;16.400;2022-09-21T10:47:34;20.40;92.80
35425;DHT22;21537;48.226;16.400;2022-09-21T10:50:03;24.00;88.50
35425;DHT22;21537;48.226;16.400;2022-09-21T10:52:41;26.60;82.50
35425;DHT22;21537;48.226;16.400;2022-09-21T10:55:16;28.50;74.50
35425;DHT22;21537;48.226;16.400;2022-09-21T10:57:43;29.40;71.30
35425;DHT22;21537;48.226;16.400;2022-09-21T11:00:26;29.30;67.30
35425;DHT22;21537;48.226;16.400;2022-09-21T11:05:48;25.40;70.70
35425;DHT22;21537;48.226;16.400;2022-09-21T11:08:21;24.10;71.90
35425;DHT22;21537;48.226;16.400;2022-09-21T11:16:39;27.70;68.00
35425;DHT22;21537;48.226;16.400;2022-09-21T11:19:13;27.60;65.10
35425;DHT22;21537;48.226;16.400;2022-09-21T11:22:03;27.80;65.50
35425;DHT22;21537;48.226;16.400;2022-09-21T11:27:23;29.60;61.40
35425;DHT22;21537;48.226;16.400;2022-09-21T11:30:08;29.70;60.20
35425;DHT22;21537;48.226;16.400;2022-09-21T11:40:31;30.20;57.90
35425;DHT22;21537;48.226;16.400;2022-09-21T11:49:00;31.80;56.20
35425;DHT22;21537;48.226;16.400;2022-09-21T11:54:17;33.10;54.50
35425;DHT22;21537;48.226;16.400;2022-09-21T11:57:26;33.90;53.50
35425;DHT22;21537;48.226;16.400;2022-09-21T12:00:07;33.50;50.70
35425;DHT22;21537;48.226;16.400;2022-09-21T12:06:21;30.50;53.30
35425;DHT22;21537;48.226;16.400;2022-09-21T12:11:06;28.20;57.50
35425;DHT22;21537;48.226;16.400;2022-09-21T12:14:12;28.00;58.60
35425;DHT22;21537;48.226;16.400;2022-09-21T12:22:37;30.20;55.80
35425;DHT22;21537;48.226;16.400;2022-09-21T12:25:23;30.60;55.60
35425;DHT22;21537;48.226;16.400;2022-09-21T12:28:01;29.80;56.20
35425;DHT22;21537;48.226;16.400;2022-09-21T12:30:28;30.70;55.70
35425;DHT22;21537;48.226;16.400;2022-09-21T12:33:01;31.30;54.40
35425;DHT22;21537;48.226;16.400;2022-09-21T12:35:41;30.80;54.90
35425;DHT22;21537;48.226;16.400;2022-09-21T12:38:16;29.80;56.00
35425;DHT22;21537;48.226;16.400;2022-09-21T12:40:54;28.00;56.20
35425;DHT22;21537;48.226;16.400;2022-09-21T12:43:34;26.60;58.00
35425;DHT22;21537;48.226;16.400;2022-09-21T12:46:12;26.10;59.30
35425;DHT22;21537;48.226;16.400;2022-09-21T12:48:39;26.40;60.10
35425;DHT22;21537;48.226;16.400;2022-09-21T12:51:30;28.10;59.00
35425;DHT22;21537;48.226;16.400;2022-09-21T12:54:24;29.90;57.50
35425;DHT22;21537;48.226;16.400;2022-09-21T13:00:30;32.30;54.80
35425;DHT22;21537;48.226;16.400;2022-09-21T13:03:20;32.60;54.20
35425;DHT22;21537;48.226;16.400;2022-09-21T13:08:27;32.90;51.80
35425;DHT22;21537;48.226;16.400;2022-09-21T13:11:00;32.80;51.90
35425;DHT22;21537;48.226;16.400;2022-09-21T13:13:47;33.20;52.30
35425;DHT22;21537;48.226;16.400;2022-09-21T13:16:29;33.40;52.00
35425;DHT22;21537;48.226;16.400;2022-09-21T13:18:57;33.30;52.10
35425;DHT22;21537;48.226;16.400;2022-09-21T13:21:26;32.80;52.30
35425;DHT22;21537;48.226;16.400;2022-09-21T13:24:00;33.20;51.60
35425;DHT22;21537;48.226;16.400;2022-09-21T13:26:50;32.40;51.60
35425;DHT22;21537;48.226;16.400;2022-09-21T13:31:58;32.30;51.60
35425;DHT22;21537;48.226;16.400;2022-09-21T13:34:33;32.30;52.10
35425;DHT22;21537;48.226;16.400;2022-09-21T13:42:44;27.50;57.10
35425;DHT22;21537;48.226;16.400;2022-09-21T13:47:43;25.00;60.90
35425;DHT22;21537;48.226;16.400;2022-09-21T13:50:35;23.90;63.10
35425;DHT22;21537;48.226;16.400;2022-09-21T13:55:50;22.20;66.90
35425;DHT22;21537;48.226;16.400;2022-09-21T13:58:44;21.70;68.40
35425;DHT22;21537;48.226;16.400;2022-09-21T14:01:15;21.00;69.90
35425;DHT22;21537;48.226;16.400;2022-09-21T14:03:51;20.30;71.60
35425;DHT22;21537;48.226;16.400;2022-09-21T14:06:24;20.00;73.10
35425;DHT22;21537;48.226;16.400;2022-09-21T14:12:18;18.90;75.50
35425;DHT22;21537;48.226;16.400;2022-09-21T14:15:46;18.50;78.30
35425;DHT22;21537;48.226;16.400;2022-09-21T14:23:34;17.70;81.30
35425;DHT22;21537;48.226;16.400;2022-09-21T14:26:34;17.60;82.10
35425;DHT22;21537;48.226;16.400;2022-09-21T14:32:04;17.50;83.10
35425;DHT22;21537;48.226;16.400;2022-09-21T14:34:34;17.50;83.20
35425;DHT22;21537;48.226;16.400;2022-09-21T14:37:05;17.60;82.90
35425;DHT22;21537;48.226;16.400;2022-09-21T14:39:37;17.70;83.20
35425;DHT22;21537;48.226;16.400;2022-09-21T14:42:12;17.90;83.80
35425;DHT22;21537;48.226;16.400;2022-09-21T14:44:41;18.00;84.10
35425;DHT22;21537;48.226;16.400;2022-09-21T14:47:35;18.00;84.60
35425;DHT22;21537;48.226;16.400;2022-09-21T14:55:31;17.80;86.50
35425;DHT22;21537;48.226;16.400;2022-09-21T15:00:42;17.20;90.00
35425;DHT22;21537;48.226;16.400;2022-09-21T15:06:33;16.80;90.90
35425;DHT22;21537;48.226;16.400;2022-09-21T15:09:34;16.70;90.90
35425;DHT22;21537;48.226;16.400;2022-09-21T15:12:40;16.50;91.10
35425;DHT22;21537;48.226;16.400;2022-09-21T15:15:35;16.20;91.90
35425;DHT22;21537;48.226;16.400;2022-09-21T15:18:14;16.20;92.70
35425;DHT22;21537;48.226;16.400;2022-09-21T15:20:42;16.10;94.10
35425;DHT22;21537;48.226;16.400;2022-09-21T15:23:17;16.10;95.10
35425;DHT22;21537;48.226;16.400;2022-09-21T15:25:56;16.00;96.20
35425;DHT22;21537;48.226;16.400;2022-09-21T15:28:25;16.00;97.20
35425;DHT22;21537;48.226;16.400;2022-09-21T15:30:56;15.90;98.20
35425;DHT22;21537;48.226;16.400;2022-09-21T15:33:22;15.80;99.10
35425;DHT22;21537;48.226;16.400;2022-09-21T15:35:49;15.70;99.90
35425;DHT22;21537;48.226;16.400;2022-09-21T15:38:46;15.60;99.90
35425;DHT22;21537;48.226;16.400;2022-09-21T15:44:06;15.60;99.90
35425;DHT22;21537;48.226;16.400;2022-09-21T15:46:38;15.50;99.90
35425;DHT22;21537;48.226;16.400;2022-09-21T15:49:10;15.60;99.90
35425;DHT22;21537;48.226;16.400;2022-09-21T15:51:38;15.60;99.90
35425;DHT22;21537;48.226;16.400;2022-09-21T15:54:44;15.60;99.90
35425;DHT22;21537;48.226;16.400;2022-09-21T15:57:29;15.50;99.90
35425;DHT22;21537;48.226;16.400;2022-09-21T16:02:37;15.50;99.90
35425;DHT22;21537;48.226;16.400;2022-09-21T16:05:07;15.40;99.90
35425;DHT22;21537;48.226;16.400;2022-09-21T16:07:38;15.40;99.90
35425;DHT22;21537;48.226;16.400;2022-09-21T16:13:09;15.20;99.90
35425;DHT22;21537;48.226;16.400;2022-09-21T16:16:06;15.20;99.90
35425;DHT22;21537;48.226;16.400;2022-09-21T16:18:47;15.10;99.90
35425;DHT22;21537;48.226;16.400;2022-09-21T16:23:39;14.90;99.90
35425;DHT22;21537;48.226;16.400;2022-09-21T16:26:05;14.80;99.90
35425;DHT22;21537;48.226;16.400;2022-09-21T16:28:37;14.80;99.90
35425;DHT22;21537;48.226;16.400;2022-09-21T16:31:24;14.80;99.90
35425;DHT22;21537;48.226;16.400;2022-09-21T16:38:47;14.60;99.90
35425;DHT22;21537;48.226;16.400;2022-09-21T16:41:14;14.50;99.90
35425;DHT22;21537;48.226;16.400;2022-09-21T16:43:41;14.40;99.90
35425;DHT22;21537;48.226;16.400;2022-09-21T16:46:12;14.40;99.90
35425;DHT22;21537;48.226;16.400;2022-09-21T16:48:41;14.30;99.90
35425;DHT22;21537;48.226;16.400;2022-09-21T16:51:14;14.30;99.90
35425;DHT22;21537;48.226;16.400;2022-09-21T16:53:40;14.20;99.90
35425;DHT22;21537;48.226;16.400;2022-09-21T16:56:13;14.20;99.90
35425;DHT22;21537;48.226;16.400;2022-09-21T16:58:43;14.10;99.90
35425;DHT22;21537;48.226;16.400;2022-09-21T17:01:15;14.10;99.90
35425;DHT22;21537;48.226;16.400;2022-09-21T17:03:55;14.00;99.90
35425;DHT22;21537;48.226;16.400;2022-09-21T17:06:21;14.00;99.90
35425;DHT22;21537;48.226;16.400;2022-09-21T17:08:48;13.90;99.90
35425;DHT22;21537;48.226;16.400;2022-09-21T17:11:18;13.80;99.90
35425;DHT22;21537;48.226;16.400;2022-09-21T17:13:53;13.80;99.90
35425;DHT22;21537;48.226;16.400;2022-09-21T17:16:22;13.70;99.90
35425;DHT22;21537;48.226;16.400;2022-09-21T17:18:48;13.70;99.90
35425;DHT22;21537;48.226;16.400;2022-09-21T17:21:18;13.80;99.90
35425;DHT22;21537;48.226;16.400;2022-09-21T17:23:44;13.70;99.90
35425;DHT22;21537;48.226;16.400;2022-09-21T17:26:15;13.70;99.90
35425;DHT22;21537;48.226;16.400;2022-09-21T17:28:42;13.60;99.90
35425;DHT22;21537;48.226;16.400;2022-09-21T17:31:12;13.60;99.90
35425;DHT22;21537;48.226;16.400;2022-09-21T17:33:39;13.60;99.90
35425;DHT22;21537;48.226;16.400;2022-09-21T17:36:05;13.50;99.90
35425;DHT22;21537;48.226;16.400;2022-09-21T17:38:32;13.50;99.90
35425;DHT22;21537;48.226;16.400;2022-09-21T17:41:02;13.50;99.90
35425;DHT22;21537;48.226;16.400;2022-09-21T17:43:36;13.50;99.90
35425;DHT22;21537;48.226;16.400;2022-09-21T17:46:52;13.50;99.90
35425;DHT22;21537;48.226;16.400;2022-09-21T17:49:01;13.50;99.90
35425;DHT22;21537;48.226;16.400;2022-09-21T17:51:27;13.60;99.90
35425;DHT22;21537;48.226;16.400;2022-09-21T17:54:11;13.60;99.90
35425;DHT22;21537;48.226;16.400;2022-09-21T17:56:54;13.60;99.90
35425;DHT22;21537;48.226;16.400;2022-09-21T17:59:25;13.60;99.90
35425;DHT22;21537;48.226;16.400;2022-09-21T18:01:53;13.60;99.90
35425;DHT22;21537;48.226;16.400;2022-09-21T18:04:23;13.60;99.90
35425;DHT22;21537;48.226;16.400;2022-09-21T18:06:51;13.60;99.90
35425;DHT22;21537;48.226;16.400;2022-09-21T18:09:18;13.50;99.90
35425;DHT22;21537;48.226;16.400;2022-09-21T18:20:23;13.40;99.90
35425;DHT22;21537;48.226;16.400;2022-09-21T18:23:16;13.30;99.90
35425;DHT22;21537;48.226;16.400;2022-09-21T18:25:43;13.20;99.90
35425;DHT22;21537;48.226;16.400;2022-09-21T18:28:48;13.20;99.90
35425;DHT22;21537;48.226;16.400;2022-09-21T18:37:15;13.00;99.90
35425;DHT22;21537;48.226;16.400;2022-09-21T18:43:11;12.90;99.90
35425;DHT22;21537;48.226;16.400;2022-09-21T18:46:03;12.90;99.90
35425;DHT22;21537;48.226;16.400;2022-09-21T18:54:18;12.70;99.90
35425;DHT22;21537;48.226;16.400;2022-09-21T18:56:45;12.70;99.90
35425;DHT22;21537;48.226;16.400;2022-09-21T18:59:11;12.60;99.90
35425;DHT22;21537;48.226;16.400;2022-09-21T19:01:37;12.60;99.90
35425;DHT22;21537;48.226;16.400;2022-09-21T19:04:04;12.60;99.90
35425;DHT22;21537;48.226;16.400;2022-09-21T19:06:41;12.50;99.90